Time;durP1;ratioP1;P1;durP2;ratioP2;P2;SDS_P1;SDS_P2;PMS_P1;PMS_P2;Temp;Humidity;BMP_temperature;BMP_pressure;BME280_temperature;BME280_humidity;BME280_pressure;Samples;Min_cycle;Max_cycle;Signal;HPM_P1;HPM_P2
2022/11/06 00:01:37;;;;;;;5.03;3.70;;;9.60;1.00;;;;;;5060845;28;20203;-56
2022/11/06 00:04:04;;;;;;;8.40;4.20;;;9.60;1.00;;;;;;5063001;28;20654;-56
2022/11/06 00:06:47;;;;;;;8.57;3.50;;;9.60;22.60;;;;;;5056264;28;20203;-56
2022/11/06 00:09:17;;;;;;;8.57;3.93;;;9.60;31.50;;;;;;5060086;28;20216;-56
2022/11/06 00:11:45;;;;;;;11.43;4.87;;;9.60;28.70;;;;;;5060579;28;20363;-56
2022/11/06 00:14:12;;;;;;;7.67;3.77;;;9.60;40.90;;;;;;5054674;28;20237;-56
2022/11/06 00:16:40;;;;;;;8.37;4.27;;;9.60;8.80;;;;;;5058172;28;20198;-57
2022/11/06 00:19:07;;;;;;;6.93;3.70;;;9.60;22.10;;;;;;5062022;28;20718;-56
2022/11/06 00:21:34;;;;;;;5.80;3.90;;;9.60;10.30;;;;;;5061980;28;20197;-56
2022/11/06 00:24:03;;;;;;;8.17;4.33;;;9.50;1.00;;;;;;5061232;28;20869;-57
2022/11/06 00:26:32;;;;;;;6.77;4.10;;;9.50;57.40;;;;;;5059656;28;20922;-58
2022/11/06 00:29:00;;;;;;;5.17;3.57;;;9.60;80.60;;;;;;5058557;28;20215;-56
2022/11/06 00:31:30;;;;;;;7.97;3.93;;;9.60;74.50;;;;;;5057217;28;20213;-56
2022/11/06 00:33:59;;;;;;;12.23;4.27;;;9.60;40.30;;;;;;5058448;28;20220;-57
2022/11/06 00:36:29;;;;;;;4.73;3.47;;;9.60;66.30;;;;;;5063999;28;20223;-56
2022/11/06 00:38:56;;;;;;;7.33;3.73;;;9.60;74.40;;;;;;5066163;28;20197;-56
2022/11/06 00:41:24;;;;;;;7.03;3.67;;;9.60;54.50;;;;;;5068600;28;20287;-56
2022/11/06 00:43:59;;;;;;;5.70;3.30;;;9.60;50.40;;;;;;5064921;28;20212;-56
2022/11/06 00:46:26;;;;;;;8.70;3.67;;;9.60;71.00;;;;;;5062807;28;20203;-56
2022/11/06 00:48:54;;;;;;;5.40;3.30;;;9.50;99.20;;;;;;5065627;28;20287;-57
2022/11/06 00:51:26;;;;;;;4.80;3.57;;;9.50;99.90;;;;;;5060396;28;20214;-57
2022/11/06 00:53:58;;;;;;;8.13;3.50;;;9.50;99.90;;;;;;5059453;28;20198;-56
2022/11/06 00:56:25;;;;;;;5.80;3.23;;;9.50;99.90;;;;;;5064437;28;20202;-56
2022/11/06 00:58:53;;;;;;;5.13;3.50;;;9.50;99.90;;;;;;5055186;28;20229;-56
2022/11/06 01:01:23;;;;;;;9.30;3.93;;;9.50;99.90;;;;;;5061265;28;20521;-56
2022/11/06 01:04:24;;;;;;;5.00;3.23;;;9.50;99.90;;;;;;5060140;28;20254;-56
2022/11/06 01:06:53;;;;;;;9.03;3.27;;;9.50;83.00;;;;;;5043449;28;20215;-56
2022/11/06 01:09:23;;;;;;;6.30;3.10;;;9.50;99.90;;;;;;5060102;28;20205;-55
2022/11/06 01:11:57;;;;;;;7.77;3.30;;;9.50;99.90;;;;;;5060862;28;20216;-56
2022/11/06 01:14:39;;;;;;;5.77;2.90;;;9.50;99.90;;;;;;5058046;28;20271;-56
2022/11/06 01:17:06;;;;;;;5.13;3.00;;;9.50;99.90;;;;;;5061988;28;20201;-56
2022/11/06 01:19:33;;;;;;;4.40;3.00;;;9.40;99.90;;;;;;5060913;28;20205;-57
2022/11/06 01:22:00;;;;;;;8.30;2.97;;;9.50;99.90;;;;;;5064160;28;20277;-56
2022/11/06 01:24:27;;;;;;;5.60;3.13;;;9.60;91.40;;;;;;5060783;28;20295;-56
2022/11/06 01:26:55;;;;;;;7.30;2.80;;;9.50;18.90;;;;;;5060376;28;20267;-56
2022/11/06 01:29:42;;;;;;;4.10;2.87;;;9.60;1.00;;;;;;5055430;28;20204;-56
2022/11/06 01:32:09;;;;;;;6.70;2.93;;;9.60;1.00;;;;;;5058262;28;20571;-57
2022/11/06 01:34:36;;;;;;;7.77;3.30;;;9.60;1.00;;;;;;5056124;28;20207;-56
2022/11/06 01:37:03;;;;;;;4.87;2.83;;;9.60;1.00;;;;;;5060549;28;20258;-55
2022/11/06 01:39:30;;;;;;;6.97;2.37;;;9.60;1.00;;;;;;5064185;28;20205;-56
2022/11/06 01:41:57;;;;;;;6.50;3.00;;;9.60;1.00;;;;;;5074687;28;20281;-56
2022/11/06 01:44:42;;;;;;;5.17;2.87;;;9.60;1.00;;;;;;5061240;28;20189;-56
2022/11/06 01:47:24;;;;;;;5.40;2.60;;;9.70;99.90;;;;;;5059896;28;20459;-56
2022/11/06 01:49:54;;;;;;;2.97;2.33;;;9.70;32.50;;;;;;5063742;28;20243;-55
2022/11/06 01:52:22;;;;;;;6.23;3.07;;;9.70;1.00;;;;;;5062735;28;20260;-56
2022/11/06 01:54:53;;;;;;;7.97;2.70;;;9.70;32.40;;;;;;5066158;28;20199;-55
2022/11/06 01:57:20;;;;;;;4.03;2.60;;;9.70;1.00;;;;;;5070431;28;20211;-55
2022/11/06 01:59:50;;;;;;;7.20;2.90;;;9.70;99.90;;;;;;5060445;28;20614;-55
2022/11/06 02:02:18;;;;;;;6.10;2.60;;;9.70;1.00;;;;;;5062543;28;20203;-55
2022/11/06 02:04:49;;;;;;;5.90;2.57;;;9.70;1.00;;;;;;5055534;28;20299;-55
2022/11/06 02:07:17;;;;;;;5.03;2.50;;;9.70;1.00;;;;;;5078257;28;20623;-55
2022/11/06 02:09:44;;;;;;;5.00;2.40;;;9.70;1.00;;;;;;5060472;28;20201;-56
2022/11/06 02:12:17;;;;;;;5.37;2.63;;;9.70;99.90;;;;;;5064529;28;21163;-56
2022/11/06 02:15:19;;;;;;;3.50;2.03;;;9.70;99.90;;;;;;5059789;28;20736;-56
2022/11/06 02:18:37;;;;;;;6.37;2.63;;;9.70;1.00;;;;;;5034234;28;20553;-55
2022/11/06 02:21:10;;;;;;;5.93;2.67;;;9.70;1.00;;;;;;5022087;28;20305;-55
2022/11/06 02:23:59;;;;;;;4.80;2.07;;;9.70;99.90;;;;;;5060926;28;20617;-55
2022/11/06 02:26:51;;;;;;;6.60;2.33;;;9.70;99.90;;;;;;5064356;28;20225;-55
2022/11/06 02:29:45;;;;;;;6.23;2.83;;;9.80;1.00;;;;;;5057498;28;20707;-55
2022/11/06 02:32:19;;;;;;;6.43;2.00;;;9.70;99.90;;;;;;5052063;28;20898;-55
2022/11/06 02:34:47;;;;;;;6.90;2.20;;;9.80;1.00;;;;;;5059040;28;20191;-59
2022/11/06 02:37:19;;;;;;;4.87;2.40;;;9.80;1.00;;;;;;5063976;28;20191;-55
2022/11/06 02:39:48;;;;;;;4.83;2.60;;;9.80;99.90;;;;;;5064196;28;20664;-55
2022/11/06 02:42:19;;;;;;;4.27;2.57;;;9.80;99.90;;;;;;5062622;28;20712;-55
2022/11/06 02:44:49;;;;;;;5.93;2.53;;;9.90;1.00;;;;;;5052460;28;20198;-55
2022/11/06 02:47:20;;;;;;;6.57;2.47;;;9.90;1.00;;;;;;5062647;28;20201;-55
2022/11/06 02:50:00;;;;;;;3.17;2.23;;;9.80;1.00;;;;;;5061303;28;20206;-55
2022/11/06 02:52:33;;;;;;;7.00;2.30;;;9.80;1.00;;;;;;5064083;28;20206;-55
2022/11/06 02:55:14;;;;;;;5.07;2.43;;;9.80;1.00;;;;;;5069387;28;20538;-55
2022/11/06 02:57:47;;;;;;;5.80;2.03;;;9.90;1.00;;;;;;5070601;28;20212;-55
2022/11/06 03:00:15;;;;;;;4.07;2.50;;;9.80;1.00;;;;;;5063161;28;20297;-55
2022/11/06 03:02:55;;;;;;;4.53;2.30;;;9.80;1.00;;;;;;5069052;28;20240;-56
2022/11/06 03:05:29;;;;;;;7.37;2.27;;;9.90;1.00;;;;;;5068427;28;20688;-55
2022/11/06 03:08:12;;;;;;;7.63;2.30;;;9.90;1.00;;;;;;5065470;28;20218;-55
2022/11/06 03:10:49;;;;;;;4.37;2.47;;;9.80;99.90;;;;;;5063216;28;20237;-55
2022/11/06 03:13:18;;;;;;;4.80;2.80;;;9.80;1.00;;;;;;5063880;28;20215;-55
2022/11/06 03:16:03;;;;;;;8.10;2.30;;;9.80;1.00;;;;;;5065125;28;20259;-55
2022/11/06 03:19:11;;;;;;;5.60;2.50;;;9.80;99.90;;;;;;5066985;28;20282;-55
2022/11/06 03:21:43;;;;;;;6.00;2.20;;;9.80;99.90;;;;;;5062935;28;20305;-56
2022/11/06 03:24:20;;;;;;;5.03;2.20;;;9.80;92.40;;;;;;5069318;28;20202;-55
2022/11/06 03:26:53;;;;;;;4.53;2.17;;;9.80;92.30;;;;;;5060040;28;20184;-55
2022/11/06 03:29:33;;;;;;;6.20;2.40;;;9.80;1.00;;;;;;5065233;28;20613;-55
2022/11/06 03:32:22;;;;;;;6.13;2.00;;;9.90;99.90;;;;;;5066257;28;20222;-55
2022/11/06 03:35:03;;;;;;;3.97;2.13;;;9.90;1.00;;;;;;5061477;28;20283;-57
2022/11/06 03:37:39;;;;;;;5.27;2.30;;;9.80;1.00;;;;;;5067450;28;20568;-55
2022/11/06 03:40:12;;;;;;;6.70;2.00;;;9.90;1.00;;;;;;5064886;28;20191;-56
2022/11/06 03:42:41;;;;;;;4.17;2.00;;;9.90;1.00;;;;;;5066332;28;20239;-56
2022/11/06 03:45:13;;;;;;;4.07;2.33;;;9.90;1.00;;;;;;5065762;28;21264;-56
2022/11/06 03:47:47;;;;;;;6.73;2.13;;;9.90;1.00;;;;;;5068915;28;20207;-56
2022/11/06 03:50:16;;;;;;;3.23;1.90;;;10.00;99.90;;;;;;5068813;28;20796;-56
2022/11/06 03:52:53;;;;;;;6.30;2.50;;;9.90;99.90;;;;;;5067765;28;20215;-56
2022/11/06 03:55:38;;;;;;;7.90;2.40;;;9.90;99.90;;;;;;5067857;28;20191;-56
2022/11/06 03:58:12;;;;;;;4.03;1.87;;;10.00;6.90;;;;;;5067718;28;20208;-55
2022/11/06 04:00:42;;;;;;;5.37;2.10;;;10.00;1.00;;;;;;5064896;28;20232;-56
2022/11/06 04:03:22;;;;;;;4.93;1.93;;;10.00;1.00;;;;;;5068494;28;20282;-56
2022/11/06 04:06:12;;;;;;;9.30;2.17;;;10.00;1.00;;;;;;5069104;28;20213;-56
2022/11/06 04:14:16;;;;;;;4.47;1.87;;;10.00;1.00;;;;;;5066152;28;20234;-56
2022/11/06 04:16:49;;;;;;;6.23;2.67;;;10.00;1.00;;;;;;5067062;28;20304;-55
2022/11/06 04:19:19;;;;;;;4.80;2.20;;;10.00;99.90;;;;;;5069483;28;20285;-56
2022/11/06 04:21:51;;;;;;;9.83;2.40;;;10.00;99.90;;;;;;5066613;28;20195;-55
2022/11/06 04:28:17;;;;;;;6.20;2.33;;;10.00;99.90;;;;;;5067488;28;20538;-56
2022/11/06 04:30:59;;;;;;;5.10;2.07;;;10.00;1.00;;;;;;5004373;28;20205;-57
2022/11/06 04:33:36;;;;;;;2.97;1.77;;;10.00;1.00;;;;;;5005005;28;20221;-56
2022/11/06 04:36:09;;;;;;;4.13;2.13;;;9.90;1.00;;;;;;5005829;28;20287;-55
2022/11/06 04:39:05;;;;;;;5.40;1.80;;;9.90;99.90;;;;;;5004876;28;20744;-56
2022/11/06 04:41:49;;;;;;;4.93;2.50;;;9.90;1.00;;;;;;5005854;28;20282;-55
2022/11/06 04:44:28;;;;;;;6.83;1.90;;;9.80;1.00;;;;;;5002573;28;20198;-55
2022/11/06 04:46:59;;;;;;;8.53;2.87;;;9.90;1.00;;;;;;5005376;28;20197;-55
2022/11/06 04:49:30;;;;;;;9.73;2.43;;;9.80;1.00;;;;;;5003998;28;20754;-54
2022/11/06 04:51:58;;;;;;;6.43;2.13;;;9.80;1.00;;;;;;5004995;28;20826;-55
2022/11/06 04:54:25;;;;;;;4.63;2.23;;;9.80;1.00;;;;;;5005184;28;20752;-55
2022/11/06 04:56:59;;;;;;;4.43;2.50;;;9.80;1.00;;;;;;5005145;28;20295;-55
2022/11/06 04:59:26;;;;;;;4.57;2.20;;;9.80;1.00;;;;;;5003730;28;20230;-57
2022/11/06 05:01:53;;;;;;;6.87;2.17;;;9.80;23.90;;;;;;5044794;28;20206;-55
2022/11/06 05:04:20;;;;;;;3.37;2.23;;;9.70;99.90;;;;;;5063514;28;20771;-56
2022/11/06 05:06:47;;;;;;;5.93;2.40;;;9.70;99.90;;;;;;5062817;28;20205;-59
2022/11/06 05:09:14;;;;;;;4.33;2.50;;;9.70;99.90;;;;;;5063848;28;20331;-55
2022/11/06 05:11:41;;;;;;;4.43;2.40;;;9.70;99.90;;;;;;5062674;28;20696;-55
2022/11/06 05:14:07;;;;;;;8.87;1.97;;;9.80;99.90;;;;;;5055144;28;20856;-55
2022/11/06 05:16:34;;;;;;;5.47;1.90;;;9.80;99.90;;;;;;5066671;28;20195;-56
2022/11/06 05:19:02;;;;;;;7.93;2.50;;;9.80;99.90;;;;;;5065854;28;20213;-55
2022/11/06 05:24:15;;;;;;;4.50;2.30;;;9.90;99.90;;;;;;5065605;28;20196;-56
2022/11/06 05:26:42;;;;;;;5.07;2.40;;;9.90;99.90;;;;;;5066385;28;21196;-56
2022/11/06 05:29:11;;;;;;;5.93;2.57;;;9.80;99.90;;;;;;5063910;28;20195;-57
2022/11/06 05:31:38;;;;;;;5.40;2.80;;;9.80;99.90;;;;;;5064627;28;20249;-55
2022/11/06 05:34:05;;;;;;;4.47;1.93;;;9.80;99.90;;;;;;5065484;28;20213;-55
2022/11/06 05:36:32;;;;;;;6.77;2.60;;;9.90;99.90;;;;;;5068206;28;20287;-55
2022/11/06 05:38:59;;;;;;;4.77;2.90;;;9.90;99.90;;;;;;5067288;28;20532;-55
2022/11/06 05:41:25;;;;;;;3.97;2.40;;;9.90;99.90;;;;;;5064240;28;20720;-55
2022/11/06 05:43:52;;;;;;;8.57;2.33;;;9.90;99.90;;;;;;5059932;28;20743;-56
2022/11/06 05:46:19;;;;;;;6.80;2.40;;;9.90;99.90;;;;;;5065513;28;20209;-55
2022/11/06 05:49:07;;;;;;;4.33;2.30;;;10.00;99.90;;;;;;5062351;28;20202;-55
2022/11/06 05:51:35;;;;;;;5.30;2.50;;;9.90;99.90;;;;;;5065734;28;20712;-55
2022/11/06 05:54:03;;;;;;;6.43;2.50;;;9.90;99.90;;;;;;5061017;28;20290;-55
2022/11/06 05:56:29;;;;;;;4.43;2.27;;;9.90;99.90;;;;;;5066663;28;20287;-55
2022/11/06 05:58:56;;;;;;;7.70;2.43;;;10.00;99.90;;;;;;5060519;28;20232;-55
2022/11/06 06:01:23;;;;;;;4.90;2.63;;;10.00;99.90;;;;;;5065774;28;20304;-55
2022/11/06 06:03:50;;;;;;;4.00;2.23;;;10.00;99.90;;;;;;5063811;28;20283;-55
2022/11/06 06:06:18;;;;;;;4.83;2.00;;;10.00;99.90;;;;;;5065802;28;20206;-61
2022/11/06 06:08:45;;;;;;;6.97;2.53;;;10.00;99.90;;;;;;5062751;28;20261;-55
2022/11/06 06:11:12;;;;;;;4.40;2.40;;;10.00;99.90;;;;;;5062220;28;20230;-55
2022/11/06 06:13:39;;;;;;;4.43;2.37;;;10.10;99.90;;;;;;5062128;28;20217;-55
2022/11/06 06:16:06;;;;;;;4.27;2.10;;;10.00;99.90;;;;;;5065083;28;20256;-55
2022/11/06 06:18:32;;;;;;;6.67;2.50;;;10.10;99.90;;;;;;5057442;28;20589;-55
2022/11/06 06:20:59;;;;;;;5.70;2.40;;;10.10;99.90;;;;;;5061559;28;20201;-55
2022/11/06 06:23:26;;;;;;;6.23;2.50;;;10.10;87.80;;;;;;5079882;28;20281;-55
2022/11/06 06:25:53;;;;;;;6.03;2.43;;;10.10;51.20;;;;;;5062812;28;20201;-55
2022/11/06 06:28:20;;;;;;;3.67;1.90;;;10.20;67.80;;;;;;5063044;28;20502;-55
2022/11/06 06:30:46;;;;;;;3.57;2.40;;;10.20;1.00;;;;;;5063642;28;20226;-55
2022/11/06 06:33:13;;;;;;;6.20;2.00;;;10.10;46.80;;;;;;5066953;28;20211;-55
2022/11/06 06:35:40;;;;;;;6.87;2.23;;;10.10;1.00;;;;;;5065851;28;20188;-56
2022/11/06 06:38:07;;;;;;;5.17;2.50;;;10.10;25.90;;;;;;5065255;28;20207;-56
2022/11/06 06:40:33;;;;;;;5.87;2.40;;;10.10;18.60;;;;;;5061624;28;20200;-55
2022/11/06 06:43:00;;;;;;;3.53;2.10;;;10.10;13.10;;;;;;5064366;28;20201;-57
2022/11/06 06:45:27;;;;;;;3.17;1.73;;;10.10;24.70;;;;;;5064540;28;20209;-55
2022/11/06 06:47:54;;;;;;;4.97;1.70;;;10.10;1.00;;;;;;5064342;28;20570;-55
2022/11/06 06:50:20;;;;;;;4.00;2.00;;;10.10;1.00;;;;;;5062885;28;20312;-56
2022/11/06 06:52:48;;;;;;;2.67;1.80;;;10.10;1.00;;;;;;5063701;28;20195;-56
2022/11/06 06:55:14;;;;;;;3.80;1.93;;;10.10;1.00;;;;;;5063125;28;20204;-56
2022/11/06 06:57:41;;;;;;;4.53;2.07;;;10.10;1.00;;;;;;5064261;28;20331;-55
2022/11/06 07:00:09;;;;;;;3.07;2.03;;;10.20;1.00;;;;;;5060233;28;20193;-56
2022/11/06 07:02:35;;;;;;;3.90;2.00;;;10.20;1.00;;;;;;5060982;28;20203;-56
2022/11/06 07:05:02;;;;;;;2.17;1.53;;;10.20;1.00;;;;;;5065486;28;20203;-57
2022/11/06 07:07:30;;;;;;;2.97;1.90;;;10.20;1.00;;;;;;5061372;28;20221;-55
2022/11/06 07:09:57;;;;;;;3.53;1.90;;;10.20;1.00;;;;;;5056105;28;20221;-56
2022/11/06 07:12:24;;;;;;;2.87;1.57;;;10.20;1.00;;;;;;4706364;28;10000532;-55
2022/11/06 07:14:50;;;;;;;3.53;1.83;;;10.20;1.00;;;;;;5044706;28;20237;-56
2022/11/06 07:17:17;;;;;;;3.77;1.97;;;10.20;99.90;;;;;;5064991;28;20201;-55
2022/11/06 07:19:44;;;;;;;5.27;1.90;;;10.20;1.00;;;;;;5064573;28;20187;-57
2022/11/06 07:22:11;;;;;;;5.03;2.00;;;10.30;99.90;;;;;;5061053;28;20200;-61
2022/11/06 07:24:38;;;;;;;5.67;1.83;;;10.30;1.00;;;;;;5065272;28;20236;-60
2022/11/06 07:27:05;;;;;;;6.93;1.57;;;10.40;99.90;;;;;;5059847;28;20356;-59
2022/11/06 07:29:32;;;;;;;9.70;2.70;;;10.50;1.00;;;;;;5056432;28;20205;-56
2022/11/06 07:31:58;;;;;;;5.93;2.07;;;10.60;1.00;;;;;;5063751;28;20204;-57
2022/11/06 07:34:25;;;;;;;2.30;1.90;;;10.60;54.80;;;;;;5068195;28;20212;-55
2022/11/06 07:36:52;;;;;;;3.40;1.80;;;10.60;1.00;;;;;;5059235;28;20197;-56
2022/11/06 07:39:19;;;;;;;3.03;1.77;;;10.70;99.90;;;;;;5066919;28;20209;-56
2022/11/06 07:41:46;;;;;;;6.43;1.50;;;10.70;1.00;;;;;;5061493;28;20295;-56
2022/11/06 07:44:12;;;;;;;2.83;1.70;;;10.70;99.90;;;;;;5062468;28;20306;-55
2022/11/06 07:46:39;;;;;;;5.40;1.67;;;10.60;1.00;;;;;;5066365;28;20680;-55
2022/11/06 07:49:06;;;;;;;3.80;1.63;;;10.60;99.90;;;;;;5062228;28;20205;-55
2022/11/06 07:51:33;;;;;;;3.33;1.60;;;10.60;99.90;;;;;;5065695;28;20207;-55
2022/11/06 07:53:59;;;;;;;4.63;1.70;;;10.60;1.00;;;;;;5060400;28;20220;-60
2022/11/06 07:56:26;;;;;;;3.93;2.03;;;10.60;1.00;;;;;;5068341;28;20977;-55
2022/11/06 07:58:53;;;;;;;4.40;1.57;;;10.60;1.00;;;;;;5062937;28;20285;-56
2022/11/06 08:01:20;;;;;;;4.60;2.00;;;10.60;1.00;;;;;;5063899;28;20200;-56
2022/11/06 08:03:47;;;;;;;4.27;1.53;;;10.70;99.90;;;;;;5067831;28;20239;-55
2022/11/06 08:06:14;;;;;;;6.40;1.70;;;10.70;21.20;;;;;;5060477;28;20245;-55
2022/11/06 08:08:40;;;;;;;5.33;2.13;;;10.70;1.00;;;;;;5059057;28;20218;-56
2022/11/06 08:11:09;;;;;;;2.97;1.50;;;10.70;99.90;;;;;;5063659;28;20316;-56
2022/11/06 08:13:37;;;;;;;3.70;1.60;;;10.70;99.90;;;;;;5065574;28;20924;-56
2022/11/06 08:16:12;;;;;;;2.60;1.40;;;10.70;99.90;;;;;;5065946;28;20232;-55
2022/11/06 08:18:39;;;;;;;5.50;1.77;;;10.80;21.40;;;;;;5066337;28;20192;-55
2022/11/06 08:21:07;;;;;;;3.10;1.60;;;10.90;25.20;;;;;;5068079;28;21019;-56
2022/11/06 08:23:34;;;;;;;5.30;1.50;;;10.90;1.00;;;;;;5067349;28;20206;-56
2022/11/06 08:26:03;;;;;;;3.67;1.70;;;10.90;1.00;;;;;;5067117;28;20213;-55
2022/11/06 08:28:30;;;;;;;4.17;1.40;;;11.00;1.00;;;;;;5063955;28;20227;-55
2022/11/06 08:30:57;;;;;;;5.23;1.50;;;11.00;99.90;;;;;;5064139;28;20209;-56
2022/11/06 08:33:23;;;;;;;5.83;1.50;;;11.00;99.90;;;;;;5072686;28;20302;-55
2022/11/06 08:35:50;;;;;;;3.80;1.80;;;11.10;98.90;;;;;;5063912;28;20215;-56
2022/11/06 08:38:18;;;;;;;2.67;1.57;;;11.20;99.90;;;;;;5060814;28;20283;-55
2022/11/06 08:40:44;;;;;;;7.47;1.47;;;11.30;1.00;;;;;;5059178;28;20193;-55
2022/11/06 08:43:18;;;;;;;4.93;1.60;;;11.40;27.80;;;;;;5060243;28;20223;-55
2022/11/06 08:45:45;;;;;;;2.07;1.53;;;11.60;1.00;;;;;;5063045;28;20236;-55
2022/11/06 08:48:12;;;;;;;2.47;1.23;;;11.70;1.00;;;;;;5059074;28;20216;-55
2022/11/06 08:50:40;;;;;;;2.63;1.27;;;11.70;1.00;;;;;;5060840;28;20194;-55
2022/11/06 08:53:07;;;;;;;3.60;1.30;;;11.60;1.00;;;;;;5056834;28;20633;-55
2022/11/06 08:55:37;;;;;;;3.00;1.43;;;11.60;1.00;;;;;;5061104;28;20726;-55
2022/11/06 08:58:05;;;;;;;2.83;1.37;;;11.70;1.00;;;;;;5063854;28;20229;-55
2022/11/06 09:00:33;;;;;;;4.60;1.27;;;12.00;1.00;;;;;;5058655;28;20211;-55
2022/11/06 09:03:10;;;;;;;3.73;1.27;;;12.10;99.90;;;;;;5066492;28;20241;-55
2022/11/06 09:05:42;;;;;;;2.40;1.03;;;12.00;99.90;;;;;;5060263;28;20220;-55
2022/11/06 09:08:10;;;;;;;8.37;1.50;;;11.90;1.00;;;;;;5062682;28;20311;-55
2022/11/06 09:10:38;;;;;;;5.40;1.20;;;11.80;1.00;;;;;;5062601;28;20218;-55
2022/11/06 09:13:05;;;;;;;2.97;1.17;;;11.80;1.00;;;;;;5059108;28;20201;-55
2022/11/06 09:15:32;;;;;;;1.90;1.30;;;11.90;1.00;;;;;;5055822;28;20269;-56
2022/11/06 09:17:59;;;;;;;1.83;1.03;;;12.00;99.90;;;;;;5057345;28;20220;-54
2022/11/06 09:20:27;;;;;;;1.73;1.10;;;12.00;99.90;;;;;;5058575;28;20690;-54
2022/11/06 09:22:54;;;;;;;3.23;1.13;;;12.00;99.90;;;;;;5061272;28;20569;-55
2022/11/06 09:25:21;;;;;;;2.40;1.07;;;12.00;99.90;;;;;;5066144;28;20204;-56
2022/11/06 09:27:52;;;;;;;2.67;0.90;;;12.00;99.90;;;;;;5062343;28;20206;-57
2022/11/06 09:30:29;;;;;;;2.53;1.43;;;12.00;99.90;;;;;;5058251;28;20196;-57
2022/11/06 09:33:00;;;;;;;5.80;1.20;;;12.10;99.90;;;;;;5063633;28;20242;-55
2022/11/06 09:35:30;;;;;;;3.83;1.20;;;12.20;99.90;;;;;;5062646;28;20249;-55
2022/11/06 09:38:04;;;;;;;4.50;1.20;;;12.30;1.00;;;;;;5063915;28;20230;-53
2022/11/06 09:40:42;;;;;;;2.87;1.00;;;12.40;1.00;;;;;;5085419;28;20283;-55
2022/11/06 09:43:36;;;;;;;2.93;1.40;;;12.30;1.00;;;;;;5065234;28;20208;-55
2022/11/06 09:46:34;;;;;;;4.47;1.30;;;12.30;1.00;;;;;;5065604;28;20683;-55
2022/11/06 09:49:04;;;;;;;3.43;0.90;;;12.30;1.00;;;;;;5064354;28;20202;-55
2022/11/06 09:51:46;;;;;;;2.33;1.10;;;12.30;1.00;;;;;;5059900;28;20197;-55
2022/11/06 09:54:40;;;;;;;3.33;1.33;;;12.30;1.00;;;;;;5064310;28;20218;-55
2022/11/06 09:57:23;;;;;;;3.97;0.80;;;12.30;1.00;;;;;;5073995;28;20195;-55
2022/11/06 09:59:50;;;;;;;2.70;1.10;;;12.30;1.00;;;;;;5064621;28;20516;-55
2022/11/06 10:02:36;;;;;;;1.83;1.10;;;12.30;1.00;;;;;;5061222;28;20187;-55
2022/11/06 10:05:12;;;;;;;2.87;0.90;;;12.20;1.00;;;;;;5063990;28;20209;-54
2022/11/06 10:07:41;;;;;;;3.83;1.03;;;12.40;1.00;;;;;;5065013;28;20210;-55
2022/11/06 10:10:14;;;;;;;1.93;1.03;;;12.30;1.00;;;;;;5063584;28;20221;-55
2022/11/06 10:13:27;;;;;;;2.00;1.20;;;12.40;99.90;;;;;;5058234;28;20206;-55
2022/11/06 10:16:03;;;;;;;3.90;1.30;;;12.30;99.90;;;;;;4998408;28;20251;-57
2022/11/06 10:18:37;;;;;;;4.00;1.13;;;12.40;1.00;;;;;;5057583;28;20506;-55
2022/11/06 10:21:30;;;;;;;5.70;1.33;;;12.40;1.00;;;;;;5061269;28;20658;-54
2022/11/06 10:24:01;;;;;;;1.50;1.00;;;12.60;99.90;;;;;;5032174;28;20212;-54
2022/11/06 10:26:37;;;;;;;7.47;1.00;;;12.80;99.90;;;;;;5060325;28;20195;-57
2022/11/06 10:29:29;;;;;;;2.53;1.83;;;13.10;1.00;;;;;;5058411;28;20248;-57
2022/11/06 10:32:05;;;;;;;3.60;1.10;;;13.30;1.00;;;;;;5059533;28;20195;-55
2022/11/06 10:34:40;;;;;;;2.77;1.37;;;13.30;1.00;;;;;;5063730;28;20217;-55
2022/11/06 10:37:27;;;;;;;4.57;1.40;;;13.00;1.00;;;;;;5056171;28;20241;-56
2022/11/06 10:39:55;;;;;;;2.13;0.97;;;12.80;1.00;;;;;;5057413;28;20912;-55
2022/11/06 10:42:29;;;;;;;3.10;1.10;;;12.90;1.00;;;;;;5051906;28;20202;-56
2022/11/06 10:45:10;;;;;;;2.83;1.60;;;12.90;1.00;;;;;;5056269;28;20203;-55
2022/11/06 10:47:49;;;;;;;3.97;2.17;;;12.80;1.00;;;;;;5061630;28;20792;-54
2022/11/06 10:50:17;;;;;;;5.07;1.20;;;12.80;1.00;;;;;;5066632;28;20241;-56
2022/11/06 10:52:50;;;;;;;6.60;2.10;;;12.70;1.00;;;;;;5056919;28;20238;-55
2022/11/06 10:55:38;;;;;;;4.40;1.70;;;12.70;1.00;;;;;;5061228;28;20708;-55
2022/11/06 10:58:06;;;;;;;1.77;0.97;;;12.80;1.00;;;;;;5061013;28;20236;-55
2022/11/06 11:00:34;;;;;;;2.37;1.20;;;12.70;1.00;;;;;;5051177;28;20717;-55
2022/11/06 11:03:05;;;;;;;2.70;1.30;;;12.80;1.00;;;;;;5062183;28;20877;-57
2022/11/06 11:05:41;;;;;;;5.90;1.60;;;12.80;1.00;;;;;;5058932;28;20203;-55
2022/11/06 11:08:44;;;;;;;4.10;1.47;;;12.90;1.00;;;;;;5055104;28;20581;-54
2022/11/06 11:11:20;;;;;;;2.10;1.07;;;13.10;99.90;;;;;;4963537;28;20252;-57
2022/11/06 11:13:49;;;;;;;4.07;1.70;;;13.30;99.90;;;;;;4980270;28;20218;-55
2022/11/06 11:16:23;;;;;;;2.90;1.40;;;13.20;99.90;;;;;;4981497;28;20701;-55
2022/11/06 11:18:51;;;;;;;5.03;1.20;;;13.30;99.90;;;;;;4982585;28;20202;-55
2022/11/06 11:21:17;;;;;;;3.77;1.20;;;13.10;99.90;;;;;;4977376;28;21044;-56
2022/11/06 11:23:45;;;;;;;5.07;1.60;;;13.30;99.90;;;;;;4981889;28;20198;-56
2022/11/06 11:26:20;;;;;;;5.73;1.20;;;13.20;99.90;;;;;;4978466;28;20206;-56
2022/11/06 11:28:59;;;;;;;2.33;1.17;;;13.10;99.90;;;;;;4975758;28;20212;-55
2022/11/06 11:31:32;;;;;;;3.57;1.40;;;13.10;99.90;;;;;;4982176;28;20206;-55
2022/11/06 11:34:05;;;;;;;3.10;1.20;;;13.00;99.90;;;;;;4982452;28;20344;-55
2022/11/06 11:36:47;;;;;;;3.37;1.33;;;13.00;1.00;;;;;;4980214;28;20205;-56
2022/11/06 11:39:17;;;;;;;3.07;1.10;;;13.10;99.90;;;;;;4979377;28;20261;-56
2022/11/06 11:41:43;;;;;;;6.77;1.20;;;13.00;99.90;;;;;;4980042;28;20247;-55
2022/11/06 11:44:10;;;;;;;3.47;1.10;;;12.90;99.90;;;;;;4983537;28;20240;-56
2022/11/06 11:46:52;;;;;;;3.80;1.13;;;12.90;99.90;;;;;;5070293;28;20556;-56
2022/11/06 11:49:30;;;;;;;3.70;1.10;;;13.10;99.90;;;;;;5067276;28;20211;-56
2022/11/06 11:52:00;;;;;;;4.20;1.30;;;13.00;99.90;;;;;;5064628;28;20218;-56
2022/11/06 11:54:32;;;;;;;5.43;1.00;;;13.00;1.00;;;;;;5058357;28;20218;-56
2022/11/06 11:57:05;;;;;;;1.93;0.77;;;12.90;99.90;;;;;;5059235;28;20283;-55
2022/11/06 11:59:56;;;;;;;4.73;1.00;;;12.90;99.90;;;;;;5067027;28;20697;-54
2022/11/06 12:02:45;;;;;;;2.40;0.73;;;12.90;99.90;;;;;;5066775;28;20308;-56
2022/11/06 12:05:20;;;;;;;4.03;1.23;;;12.80;99.90;;;;;;5064465;28;20639;-55
2022/11/06 12:07:52;;;;;;;2.20;1.10;;;12.80;99.90;;;;;;5064546;28;20217;-54
2022/11/06 12:10:33;;;;;;;5.57;1.00;;;12.80;99.90;;;;;;5064259;28;20588;-55
2022/11/06 12:13:03;;;;;;;5.40;1.30;;;12.70;99.90;;;;;;5064425;28;20243;-53
2022/11/06 12:15:45;;;;;;;4.53;1.20;;;12.60;82.30;;;;;;5051119;28;20724;-55
2022/11/06 12:18:19;;;;;;;3.10;0.97;;;12.60;99.90;;;;;;5058071;28;20207;-55
2022/11/06 12:20:58;;;;;;;2.33;1.10;;;12.70;99.90;;;;;;5060543;28;20199;-56
2022/11/06 12:23:42;;;;;;;4.40;1.20;;;12.70;8.20;;;;;;5058306;28;20199;-55
2022/11/06 12:26:14;;;;;;;2.97;1.57;;;12.60;25.20;;;;;;5057292;28;20687;-56
2022/11/06 12:28:44;;;;;;;2.63;1.00;;;12.60;97.80;;;;;;5061863;28;20254;-54
2022/11/06 12:31:26;;;;;;;3.57;1.23;;;12.50;99.90;;;;;;5063124;28;20196;-54
2022/11/06 12:33:55;;;;;;;4.77;1.13;;;12.60;99.90;;;;;;5061680;28;20222;-55
2022/11/06 12:36:49;;;;;;;7.43;1.07;;;12.60;99.90;;;;;;5061217;28;20210;-55
2022/11/06 12:39:22;;;;;;;2.23;1.00;;;12.50;1.00;;;;;;5061138;28;20197;-56
2022/11/06 12:41:50;;;;;;;4.63;1.63;;;12.60;99.90;;;;;;5062848;28;20565;-54
2022/11/06 12:44:17;;;;;;;5.13;1.30;;;12.50;1.00;;;;;;5065385;28;20679;-55
2022/11/06 12:46:54;;;;;;;3.00;1.20;;;12.40;1.00;;;;;;5059417;28;20750;-54
2022/11/06 12:49:48;;;;;;;2.53;1.10;;;12.50;1.00;;;;;;5059639;28;20619;-54
2022/11/06 12:52:34;;;;;;;1.17;0.90;;;12.50;3.60;;;;;;5063200;28;20205;-54
2022/11/06 12:55:17;;;;;;;1.83;1.10;;;12.50;1.00;;;;;;5065336;28;20218;-54
2022/11/06 12:58:12;;;;;;;3.30;1.00;;;12.50;12.70;;;;;;5060060;28;20206;-55
2022/11/06 13:01:08;;;;;;;4.27;1.17;;;12.50;1.00;;;;;;5072378;28;20279;-59
2022/11/06 13:03:43;;;;;;;8.77;2.30;;;12.40;1.00;;;;;;5066813;28;20215;-54
2022/11/06 13:06:24;;;;;;;2.70;1.20;;;12.40;1.00;;;;;;5068166;28;20206;-54
2022/11/06 13:08:59;;;;;;;2.63;1.03;;;12.40;1.00;;;;;;5063374;28;20675;-54
2022/11/06 13:12:01;;;;;;;3.13;1.17;;;12.40;99.90;;;;;;5059814;28;20268;-54
2022/11/06 13:14:40;;;;;;;4.23;1.17;;;12.40;1.00;;;;;;4977675;28;20218;-56
2022/11/06 13:17:15;;;;;;;3.03;1.00;;;12.30;6.40;;;;;;5052321;28;20233;-55
2022/11/06 13:19:48;;;;;;;5.43;1.30;;;12.20;34.10;;;;;;5056019;28;20206;-55
2022/11/06 13:22:23;;;;;;;1.20;0.80;;;12.20;38.00;;;;;;5059515;28;20198;-55
2022/11/06 13:25:15;;;;;;;6.57;1.37;;;12.20;99.90;;;;;;5055118;28;20201;-59
2022/11/06 13:27:53;;;;;;;4.57;1.10;;;12.10;99.90;;;;;;5057047;28;20764;-55
2022/11/06 13:30:23;;;;;;;2.10;1.00;;;12.00;93.50;;;;;;5052806;28;20217;-55
2022/11/06 13:33:13;;;;;;;3.87;1.30;;;12.00;99.90;;;;;;5054832;28;20198;-54
2022/11/06 13:35:43;;;;;;;3.53;1.00;;;12.00;99.90;;;;;;5054868;28;20228;-55
2022/11/06 13:38:34;;;;;;;2.50;1.03;;;11.90;99.90;;;;;;5052315;28;20194;-55